createdAt,value
2019-04-05T00:01:44.714Z,9.00
2019-04-05T00:04:12.037Z,9.17
2019-04-05T00:06:39.424Z,9.00
2019-04-05T00:09:06.643Z,9.10
2019-04-05T00:11:33.505Z,8.40
2019-04-05T00:14:00.227Z,9.80
2019-04-05T00:16:28.843Z,8.77
2019-04-05T00:18:58.234Z,9.97
2019-04-05T00:21:25.966Z,8.83
2019-04-05T00:23:53.484Z,8.53
2019-04-05T00:26:20.710Z,9.30
2019-04-05T00:28:47.664Z,8.43
2019-04-05T00:31:14.555Z,8.33
2019-04-05T00:33:41.348Z,8.43
2019-04-05T00:36:08.129Z,8.80
2019-04-05T00:38:36.880Z,9.10
2019-04-05T00:41:03.794Z,9.07
2019-04-05T00:43:30.524Z,9.37
2019-04-05T00:45:57.401Z,7.50
2019-04-05T00:48:24.236Z,8.93
2019-04-05T00:50:52.041Z,9.17
2019-04-05T00:53:18.732Z,8.87
2019-04-05T00:55:45.769Z,11.03
2019-04-05T00:58:14.461Z,7.63
2019-04-05T01:00:41.250Z,7.83
2019-04-05T01:03:08.003Z,9.50
2019-04-05T01:05:35.169Z,9.67
2019-04-05T01:08:02.086Z,8.60
2019-04-05T01:10:30.405Z,9.10
2019-04-05T01:12:57.251Z,8.73
2019-04-05T01:15:24.025Z,9.17
2019-04-05T01:17:54.292Z,8.20
2019-04-05T01:20:21.560Z,9.07
2019-04-05T01:22:49.037Z,7.90
2019-04-05T01:25:16.107Z,8.47
2019-04-05T01:27:43.333Z,9.27
2019-04-05T01:30:14.743Z,8.30
2019-04-05T01:32:41.915Z,7.93
2019-04-05T01:35:09.461Z,8.47
2019-04-05T01:37:36.976Z,7.80
2019-04-05T01:40:06.143Z,7.87
2019-04-05T01:42:33.165Z,8.53
2019-04-05T01:45:00.303Z,7.73
2019-04-05T01:47:27.098Z,7.97
2019-04-05T01:49:55.059Z,7.87
2019-04-05T01:52:22.289Z,7.77
2019-04-05T01:54:48.997Z,8.07
2019-04-05T01:57:15.857Z,8.43
2019-04-05T01:59:42.653Z,7.93
2019-04-05T02:02:09.549Z,8.40
2019-04-05T02:04:36.242Z,8.63
2019-04-05T02:07:04.303Z,8.97
2019-04-05T02:09:31.199Z,8.63
2019-04-05T02:11:58.395Z,8.93
2019-04-05T02:14:25.960Z,8.73
2019-04-05T02:16:54.691Z,8.90
2019-04-05T02:19:21.896Z,9.20
2019-04-05T02:21:48.879Z,9.00
2019-04-05T02:24:15.750Z,9.43
2019-04-05T02:26:42.951Z,9.87
2019-04-05T02:29:09.842Z,8.50
2019-04-05T02:31:36.694Z,8.97
2019-04-05T02:34:03.578Z,9.90
2019-04-05T02:36:30.680Z,8.80
2019-04-05T02:38:57.440Z,10.40
2019-04-05T02:41:26.606Z,9.33
2019-04-05T02:43:55.471Z,9.10
2019-04-05T02:46:24.817Z,9.50
2019-04-05T02:48:53.392Z,9.17
2019-04-05T02:51:22.519Z,8.97
2019-04-05T02:53:51.647Z,8.63
2019-04-05T02:56:20.425Z,10.50
2019-04-05T02:58:47.191Z,8.57
2019-04-05T03:01:14.949Z,8.77
2019-04-05T03:03:41.716Z,8.77
2019-04-05T03:06:15.394Z,8.90
2019-04-05T03:08:45.160Z,9.97
2019-04-05T03:11:19.325Z,9.10
2019-04-05T03:13:53.434Z,9.77
2019-04-05T03:16:41.787Z,10.47
2019-04-05T03:19:17.182Z,9.37
2019-04-05T03:22:06.401Z,10.00
2019-04-05T03:24:36.952Z,9.20
2019-04-05T03:27:09.145Z,9.07
2019-04-05T03:29:40.463Z,10.60
2019-04-05T03:32:12.313Z,9.97
2019-04-05T03:34:49.603Z,9.17
2019-04-05T03:37:37.620Z,12.10
2019-04-05T03:40:11.119Z,10.10
2019-04-05T03:42:41.740Z,13.33
2019-04-05T03:45:08.864Z,13.87
2019-04-05T03:47:35.714Z,9.97
2019-04-05T03:50:05.171Z,11.50
2019-04-05T03:52:32.248Z,10.93
2019-04-05T03:54:59.165Z,11.43
2019-04-05T03:57:25.923Z,10.47
2019-04-05T03:59:54.570Z,9.73
2019-04-05T04:02:23.559Z,11.63
2019-04-05T04:04:50.143Z,11.40
2019-04-05T04:07:17.028Z,9.33
2019-04-05T04:09:44.055Z,10.73
2019-04-05T04:12:11.177Z,10.23
2019-04-05T04:14:38.333Z,9.43
2019-04-05T04:17:12.550Z,10.10
2019-04-05T04:19:35.584Z,10.70
2019-04-05T04:22:18.226Z,10.50
2019-04-05T04:24:46.448Z,11.30
2019-04-05T04:27:13.316Z,10.87
2019-04-05T04:29:40.380Z,10.43
2019-04-05T04:32:07.323Z,10.03
2019-04-05T04:34:34.298Z,10.73
2019-04-05T04:37:01.028Z,10.97
2019-04-05T04:39:28.383Z,9.80
2019-04-05T04:41:55.458Z,10.37
2019-04-05T04:44:22.576Z,10.00
2019-04-05T04:46:49.764Z,11.00
2019-04-05T04:49:17.083Z,10.60
2019-04-05T04:51:43.964Z,10.57
2019-04-05T04:54:10.823Z,9.20
2019-04-05T04:56:38.400Z,11.00
2019-04-05T04:59:05.661Z,11.60
2019-04-05T05:01:32.607Z,18.40
2019-04-05T05:03:59.621Z,11.40
2019-04-05T05:06:26.425Z,13.77
2019-04-05T05:08:53.537Z,12.20
2019-04-05T05:11:20.563Z,12.70
2019-04-05T05:13:47.316Z,12.90
2019-04-05T05:16:14.985Z,11.57
2019-04-05T05:18:42.167Z,11.77
2019-04-05T05:21:09.084Z,10.77
2019-04-05T05:23:36.371Z,12.53
2019-04-05T05:26:03.643Z,10.73
2019-04-05T05:28:32.765Z,11.87
2019-04-05T05:34:08.561Z,17.67
2019-04-05T05:36:35.415Z,10.60
2019-04-05T05:39:05.073Z,11.63
2019-04-05T05:41:32.564Z,12.47
2019-04-05T05:43:59.437Z,11.50
2019-04-05T05:46:26.743Z,12.17
2019-04-05T05:48:54.985Z,12.60
2019-04-05T05:51:21.863Z,13.37
2019-04-05T05:53:49.033Z,14.23
2019-04-05T05:56:15.841Z,13.70
2019-04-05T05:58:47.700Z,16.10
2019-04-05T06:01:30.523Z,14.13
2019-04-05T06:04:04.929Z,16.03
2019-04-05T06:06:35.107Z,14.40
2019-04-05T06:09:06.751Z,14.07
2019-04-05T06:11:34.620Z,14.03
2019-04-05T06:14:01.415Z,15.67
2019-04-05T06:16:28.085Z,15.03
2019-04-05T06:18:54.765Z,17.23
2019-04-05T06:21:22.587Z,16.53
2019-04-05T06:23:51.039Z,16.70
2019-04-05T06:26:17.814Z,16.97
2019-04-05T06:28:50.598Z,15.50
2019-04-05T06:31:18.267Z,15.83
2019-04-05T06:33:46.799Z,16.43
2019-04-05T06:36:13.497Z,17.07
2019-04-05T06:38:40.651Z,16.60
2019-04-05T06:41:08.810Z,16.47
2019-04-05T06:43:35.480Z,13.03
2019-04-05T06:46:02.648Z,12.50
2019-04-05T06:48:30.046Z,12.90
2019-04-05T06:50:56.852Z,11.93
2019-04-05T06:53:23.599Z,12.57
2019-04-05T06:55:50.359Z,13.63
2019-04-05T06:58:20.518Z,11.93
2019-04-05T07:00:56.419Z,10.73
2019-04-05T07:03:15.655Z,12.03
2019-04-05T07:05:42.307Z,11.27
2019-04-05T07:08:10.072Z,9.83
2019-04-05T07:10:36.947Z,10.13
2019-04-05T07:13:03.979Z,10.00
2019-04-05T07:15:30.981Z,10.20
2019-04-05T07:17:57.713Z,10.80
2019-04-05T07:20:24.392Z,9.90
2019-04-05T07:22:51.210Z,11.33
2019-04-05T07:25:18.111Z,10.77
2019-04-05T07:27:46.918Z,11.73
2019-04-05T07:30:14.287Z,12.77
2019-04-05T07:32:42.993Z,10.63
2019-04-05T07:35:10.053Z,11.53
2019-04-05T07:37:36.674Z,13.17
2019-04-05T07:40:05.903Z,13.53
2019-04-05T07:42:32.611Z,14.60
2019-04-05T07:44:59.323Z,13.80
2019-04-05T07:47:40.021Z,11.30
2019-04-05T07:50:07.653Z,13.20
2019-04-05T07:52:34.320Z,13.23
2019-04-05T07:55:01.263Z,12.23
2019-04-05T07:57:28.223Z,12.63
2019-04-05T07:59:55.596Z,12.80
2019-04-05T08:02:22.392Z,13.03
2019-04-05T08:04:49.348Z,14.07
2019-04-05T08:07:18.927Z,10.70
2019-04-05T08:09:46.446Z,10.60
2019-04-05T08:12:13.307Z,12.30
2019-04-05T08:14:40.883Z,12.23
2019-04-05T08:17:07.545Z,11.20
2019-04-05T08:19:34.561Z,10.37
2019-04-05T08:22:01.300Z,9.80
2019-04-05T08:24:27.988Z,10.03
2019-04-05T08:26:54.675Z,9.87
2019-04-05T08:29:21.517Z,11.30
2019-04-05T08:31:48.304Z,8.90
2019-04-05T08:34:15.014Z,7.47
2019-04-05T08:36:41.781Z,8.97
2019-04-05T08:39:08.599Z,7.53
2019-04-05T08:41:35.435Z,9.27
2019-04-05T08:44:03.466Z,7.20
2019-04-05T08:46:30.259Z,7.63
2019-04-05T08:49:09.687Z,8.47
2019-04-05T08:51:25.697Z,9.07
2019-04-05T08:53:52.633Z,8.60
2019-04-05T08:56:19.363Z,8.10
2019-04-05T08:58:46.317Z,8.03
2019-04-05T09:01:13.297Z,6.80
2019-04-05T09:03:39.992Z,7.03
2019-04-05T09:06:06.668Z,6.87
2019-04-05T09:08:33.417Z,6.07
2019-04-05T09:11:03.373Z,6.13
2019-04-05T09:13:30.074Z,5.53
2019-04-05T09:15:57.100Z,5.37
2019-04-05T09:18:23.763Z,5.23
2019-04-05T09:20:50.619Z,6.13
2019-04-05T09:23:17.613Z,5.00
2019-04-05T09:25:44.315Z,5.23
2019-04-05T09:28:11.078Z,8.27
2019-04-05T09:30:38.229Z,5.20
2019-04-05T09:33:05.166Z,6.70
2019-04-05T09:35:31.887Z,6.73
2019-04-05T09:37:59.494Z,5.63
2019-04-05T09:40:26.249Z,5.53
2019-04-05T09:42:53.089Z,5.20
2019-04-05T09:45:19.784Z,5.43
2019-04-05T09:47:46.663Z,5.00
2019-04-05T09:50:13.626Z,4.93
2019-04-05T09:52:40.494Z,5.77
2019-04-05T09:55:09.421Z,4.40
2019-04-05T09:57:36.159Z,5.10
2019-04-05T10:00:08.608Z,4.83
2019-04-05T10:02:35.826Z,6.07
2019-04-05T10:05:04.790Z,5.50
2019-04-05T10:07:31.846Z,5.50
2019-04-05T10:10:00.444Z,7.33
2019-04-05T10:12:28.308Z,7.93
2019-04-05T10:14:55.215Z,6.33
2019-04-05T10:17:36.050Z,6.37
2019-04-05T10:20:17.475Z,5.70
2019-04-05T10:22:44.304Z,5.33
2019-04-05T10:25:11.261Z,5.17
2019-04-05T10:27:38.123Z,5.43
2019-04-05T10:30:13.165Z,6.27
2019-04-05T10:32:41.506Z,5.20
2019-04-05T10:35:08.964Z,6.00
2019-04-05T10:37:38.108Z,6.50
2019-04-05T10:40:06.678Z,5.97
2019-04-05T10:42:35.314Z,5.73
2019-04-05T10:45:07.746Z,6.60
2019-04-05T10:47:34.762Z,6.50
2019-04-05T10:50:11.609Z,6.30
2019-04-05T10:52:39.632Z,6.50
2019-04-05T10:55:07.810Z,5.93
2019-04-05T10:57:34.959Z,5.63
2019-04-05T11:00:02.572Z,5.00
2019-04-05T11:02:33.308Z,4.67
2019-04-05T11:05:06.818Z,5.63
2019-04-05T11:07:35.172Z,5.63
2019-04-05T11:10:07.748Z,5.83
2019-04-05T11:12:34.663Z,4.77
2019-04-05T11:15:03.183Z,4.93
2019-04-05T11:17:31.974Z,5.77
2019-04-05T11:19:58.873Z,4.87
2019-04-05T11:22:25.578Z,5.40
2019-04-05T11:24:52.320Z,5.47
2019-04-05T11:27:19.503Z,5.50
2019-04-05T11:29:46.220Z,5.87
2019-04-05T11:32:13.188Z,6.07
2019-04-05T11:34:40.141Z,6.20
2019-04-05T11:37:07.274Z,5.37
2019-04-05T11:39:34.454Z,5.13
2019-04-05T11:42:03.493Z,5.10
2019-04-05T11:44:32.214Z,5.57
2019-04-05T11:46:59.216Z,6.47
2019-04-05T11:49:28.624Z,6.53
2019-04-05T11:51:55.508Z,6.60
2019-04-05T11:54:22.564Z,6.40
2019-04-05T11:56:49.395Z,6.30
2019-04-05T11:59:16.246Z,6.37
2019-04-05T12:01:51.754Z,6.90
2019-04-05T12:04:25.695Z,7.90
2019-04-05T12:06:53.042Z,7.10
2019-04-05T12:09:19.962Z,6.03
2019-04-05T12:11:46.872Z,6.30
2019-04-05T12:14:30.139Z,6.50
2019-04-05T12:16:51.703Z,7.07
2019-04-05T12:19:28.980Z,6.10
2019-04-05T12:21:55.782Z,6.80
2019-04-05T12:24:23.950Z,6.83
2019-04-05T12:26:55.426Z,7.03
2019-04-05T12:29:24.113Z,7.70
2019-04-05T12:31:53.437Z,7.60
2019-04-05T12:34:22.213Z,9.10
2019-04-05T12:36:48.503Z,8.27
2019-04-05T12:39:15.994Z,9.73
2019-04-05T12:41:44.937Z,9.23
2019-04-05T12:44:14.152Z,9.60
2019-04-05T12:46:39.996Z,9.20
2019-04-05T12:49:06.784Z,10.10
2019-04-05T12:51:33.494Z,9.60
2019-04-05T12:54:00.283Z,10.27
2019-04-05T12:56:27.285Z,10.57
2019-04-05T12:58:57.488Z,11.03
2019-04-05T13:01:24.389Z,10.83
2019-04-05T13:03:51.842Z,11.47
2019-04-05T13:06:19.851Z,12.20
2019-04-05T13:08:47.471Z,12.37
2019-04-05T13:11:14.257Z,12.20
2019-04-05T13:13:42.924Z,12.77
2019-04-05T13:16:10.716Z,13.37
2019-04-05T13:18:37.708Z,12.83
2019-04-05T13:21:14.526Z,16.23
2019-04-05T13:23:35.848Z,13.87
2019-04-05T13:26:02.610Z,15.83
2019-04-05T13:28:29.359Z,17.57
2019-04-05T13:30:56.280Z,16.20
2019-04-05T13:33:23.626Z,17.00
2019-04-05T13:35:51.071Z,19.80
2019-04-05T13:38:17.747Z,20.00
2019-04-05T13:40:46.389Z,16.73
2019-04-05T13:43:13.260Z,17.83
2019-04-05T13:45:40.781Z,20.90
2019-04-05T13:48:09.017Z,21.67
2019-04-05T13:50:41.634Z,21.13
2019-04-05T13:53:12.922Z,24.20
2019-04-05T13:55:40.738Z,22.17
2019-04-05T13:58:10.717Z,24.73
2019-04-05T14:00:36.832Z,23.17
2019-04-05T14:03:04.033Z,21.03
2019-04-05T14:05:32.042Z,18.47
2019-04-05T14:08:10.869Z,19.53
2019-04-05T14:10:50.233Z,22.77
2019-04-05T14:13:29.935Z,24.73
2019-04-05T14:19:38.809Z,24.67
2019-04-05T14:22:10.106Z,25.13
2019-04-05T14:24:36.747Z,25.13
2019-04-05T14:27:04.061Z,24.73
2019-04-05T14:32:40.189Z,24.87
2019-04-05T14:35:08.172Z,25.10
2019-04-05T14:37:35.255Z,25.77
2019-04-05T14:40:06.694Z,22.87
2019-04-05T14:42:33.543Z,21.63
2019-04-05T14:45:00.147Z,21.23
2019-04-05T14:47:28.225Z,22.43
2019-04-05T14:49:55.712Z,20.23
2019-04-05T14:52:25.366Z,19.60
2019-04-05T14:55:06.313Z,18.93
2019-04-05T14:57:35.515Z,18.37
2019-04-05T15:00:01.714Z,18.77
2019-04-05T15:02:30.565Z,15.87
2019-04-05T15:04:57.243Z,16.83
2019-04-05T15:07:24.380Z,16.03
2019-04-05T15:09:54.766Z,16.13
2019-04-05T15:12:19.700Z,14.73
2019-04-05T15:14:46.479Z,15.50
2019-04-05T15:17:13.267Z,15.53
2019-04-05T15:19:41.964Z,16.20
2019-04-05T15:22:11.662Z,15.20
2019-04-05T15:24:38.846Z,15.97
2019-04-05T15:27:05.641Z,15.67
2019-04-05T15:29:46.311Z,16.20
2019-04-05T15:32:13.088Z,15.60
2019-04-05T15:34:40.173Z,15.93
2019-04-05T15:37:07.155Z,14.93
2019-04-05T15:39:33.801Z,13.97
2019-04-05T15:42:00.925Z,14.60
2019-04-05T15:44:27.893Z,14.27
2019-04-05T15:46:54.643Z,14.73
2019-04-05T15:49:31.966Z,15.87
2019-04-05T15:51:59.028Z,15.10
2019-04-05T15:54:29.201Z,14.87
2019-04-05T15:57:01.489Z,15.07
2019-04-05T15:59:28.378Z,15.27
2019-04-05T16:01:55.156Z,14.93
2019-04-05T16:04:35.796Z,15.40
2019-04-05T16:07:02.680Z,13.83
2019-04-05T16:09:29.581Z,26.27
2019-04-05T16:11:56.331Z,13.53
2019-04-05T16:14:23.166Z,13.83
2019-04-05T16:16:50.344Z,14.43
2019-04-05T16:19:17.036Z,13.43
2019-04-05T16:21:43.975Z,13.23
2019-04-05T16:24:10.769Z,13.60
2019-04-05T16:26:37.610Z,12.67
2019-04-05T16:29:04.453Z,12.17
2019-04-05T16:31:31.285Z,11.23
2019-04-05T16:33:58.041Z,10.33
2019-04-05T16:36:24.765Z,10.13
2019-04-05T16:38:53.158Z,10.00
2019-04-05T16:41:19.919Z,10.17
2019-04-05T16:43:48.335Z,10.80
2019-04-05T16:46:15.784Z,10.70
2019-04-05T16:48:42.586Z,10.17
2019-04-05T16:51:11.886Z,10.13
2019-04-05T16:53:40.604Z,10.00
2019-04-05T16:56:07.324Z,11.97
2019-04-05T16:58:34.461Z,12.87
2019-04-05T17:01:01.437Z,11.20
2019-04-05T17:03:28.910Z,13.70
2019-04-05T17:05:55.809Z,13.03
2019-04-05T17:08:22.656Z,11.60
2019-04-05T17:10:49.403Z,13.27
2019-04-05T17:13:16.026Z,14.77
2019-04-05T17:15:43.596Z,15.13
2019-04-05T17:18:10.291Z,18.00
2019-04-05T17:20:37.017Z,19.50
2019-04-05T17:23:04.036Z,20.10
2019-04-05T17:25:30.864Z,22.37
2019-04-05T17:27:59.203Z,22.67
2019-04-05T17:30:28.561Z,23.40
2019-04-05T17:32:55.364Z,23.30
2019-04-05T17:35:22.046Z,24.63
2019-04-05T17:37:54.510Z,26.47
2019-04-05T17:40:25.919Z,25.60
2019-04-05T17:42:53.146Z,23.70
2019-04-05T17:45:19.931Z,24.83
2019-04-05T17:47:47.904Z,26.13
2019-04-05T17:50:19.749Z,29.53
2019-04-05T17:52:46.550Z,31.63
2019-04-05T17:55:15.930Z,31.00
2019-04-05T17:57:45.144Z,30.97
2019-04-05T18:00:18.893Z,29.83
2019-04-05T18:02:49.548Z,30.97
2019-04-05T18:05:21.502Z,32.40
2019-04-05T18:07:49.301Z,31.60
2019-04-05T18:10:16.264Z,30.73
2019-04-05T18:12:46.192Z,29.27
2019-04-05T18:15:13.483Z,29.13
2019-04-05T18:17:40.439Z,32.00
2019-04-05T18:20:09.926Z,30.13
2019-04-05T18:22:37.261Z,29.77
2019-04-05T18:25:04.847Z,32.70
2019-04-05T18:27:31.586Z,34.47
2019-04-05T18:29:58.213Z,35.70
2019-04-05T18:32:25.159Z,37.70
2019-04-05T18:34:52.257Z,39.43
2019-04-05T18:37:19.094Z,43.00
2019-04-05T18:39:45.749Z,40.37
2019-04-05T18:42:12.988Z,42.27
2019-04-05T18:44:41.609Z,44.40
2019-04-05T18:47:08.620Z,44.10
2019-04-05T18:49:37.921Z,46.93
2019-04-05T18:52:04.604Z,48.77
2019-04-05T18:54:32.010Z,46.50
2019-04-05T18:57:00.992Z,47.10
2019-04-05T18:59:28.048Z,49.83
2019-04-05T19:01:54.895Z,49.23
2019-04-05T19:04:21.895Z,49.30
2019-04-05T19:06:48.758Z,49.40
2019-04-05T19:09:15.635Z,48.93
2019-04-05T19:11:42.391Z,45.90
2019-04-05T19:14:10.290Z,48.27
2019-04-05T19:16:37.221Z,48.37
2019-04-05T19:19:04.306Z,46.23
2019-04-05T19:21:33.605Z,45.97
2019-04-05T19:24:02.481Z,43.77
2019-04-05T19:26:29.394Z,39.50
2019-04-05T19:28:56.123Z,42.53
2019-04-05T19:48:55.474Z,34.17
2019-04-05T19:51:23.400Z,38.13
2019-04-05T19:54:02.530Z,36.23
2019-04-05T19:56:31.342Z,36.60
2019-04-05T19:58:58.291Z,39.00
2019-04-05T20:01:26.632Z,40.27
2019-04-05T20:03:56.904Z,38.87
2019-04-05T20:06:25.835Z,40.77
2019-04-05T20:08:54.290Z,40.63
2019-04-05T20:11:21.398Z,41.13
2019-04-05T20:13:48.430Z,44.67
2019-04-05T20:16:15.437Z,44.13
2019-04-05T20:18:46.106Z,45.80
2019-04-05T20:21:14.002Z,46.47
2019-04-05T20:23:47.368Z,45.93
2019-04-05T20:26:09.959Z,46.87
2019-04-05T20:28:36.906Z,48.37
2019-04-05T20:31:05.054Z,49.03
2019-04-05T20:33:31.914Z,49.50
2019-04-05T20:35:58.784Z,50.03
2019-04-05T20:38:30.672Z,49.00
2019-04-05T20:41:00.308Z,55.37
2019-04-05T20:43:27.090Z,52.87
2019-04-05T20:45:54.174Z,51.67
2019-04-05T20:48:21.061Z,52.87
2019-04-05T20:50:48.801Z,52.60
2019-04-05T20:53:22.493Z,53.37
2019-04-05T20:59:53.522Z,58.63
2019-04-05T21:02:44.493Z,56.30
2019-04-05T21:05:11.696Z,56.10
2019-04-05T21:07:38.678Z,59.33
2019-04-05T21:10:06.757Z,55.37
2019-04-05T21:12:34.875Z,57.23
2019-04-05T21:15:05.237Z,56.23
2019-04-05T21:17:33.317Z,60.27
2019-04-05T21:20:00.316Z,59.50
2019-04-05T21:22:27.258Z,57.93
2019-04-05T21:24:54.156Z,58.73
2019-04-05T21:27:23.025Z,57.50
2019-04-05T21:29:49.994Z,59.70
2019-04-05T21:32:18.837Z,61.27
2019-04-05T21:34:50.310Z,59.70
2019-04-05T21:37:32.808Z,56.67
2019-04-05T21:39:59.821Z,58.73
2019-04-05T21:42:28.304Z,56.90
2019-04-05T21:44:55.595Z,56.93
2019-04-05T21:47:22.366Z,57.83
2019-04-05T21:49:49.278Z,59.70
2019-04-05T21:52:16.203Z,57.77
2019-04-05T21:54:47.774Z,55.80
2019-04-05T21:57:11.717Z,57.57
2019-04-05T21:59:45.907Z,56.57
2019-04-05T22:02:12.827Z,57.13
2019-04-05T22:04:40.629Z,56.77
2019-04-05T22:07:07.591Z,54.67
2019-04-05T22:09:34.931Z,58.13
2019-04-05T22:12:01.826Z,55.87
2019-04-05T22:14:28.838Z,55.90
2019-04-05T22:16:55.764Z,56.70
2019-04-05T22:19:22.829Z,53.77
2019-04-05T22:21:50.334Z,52.67
2019-04-05T22:24:19.567Z,54.83
2019-04-05T22:26:46.340Z,53.93
2019-04-05T22:29:13.066Z,55.87
2019-04-05T22:31:40.183Z,56.07
2019-04-05T22:34:07.179Z,54.10
2019-04-05T22:36:34.105Z,55.07
2019-04-05T22:39:01.293Z,59.33
2019-04-05T22:41:30.058Z,54.63
2019-04-05T22:43:57.952Z,56.10
2019-04-05T22:46:24.967Z,57.03
2019-04-05T22:48:53.727Z,55.37
2019-04-05T22:51:20.748Z,56.23
2019-04-05T22:53:47.550Z,58.83
2019-04-05T22:56:18.124Z,56.23
2019-04-05T22:58:48.473Z,53.63
2019-04-05T23:01:16.986Z,58.80
2019-04-05T23:03:43.814Z,57.83
2019-04-05T23:06:11.308Z,55.40
2019-04-05T23:08:39.290Z,56.13
2019-04-05T23:11:06.030Z,58.70
2019-04-05T23:13:32.915Z,55.33
2019-04-05T23:16:00.036Z,55.13
2019-04-05T23:18:26.804Z,58.57
2019-04-05T23:20:53.766Z,56.83
2019-04-05T23:23:20.619Z,58.23
2019-04-05T23:25:47.483Z,58.97
2019-04-05T23:28:14.330Z,57.67
2019-04-05T23:30:41.079Z,58.80
2019-04-05T23:33:08.194Z,59.33
2019-04-05T23:35:35.050Z,57.47
2019-04-05T23:38:01.844Z,57.80
2019-04-05T23:40:28.770Z,60.67
2019-04-05T23:42:55.653Z,60.67
2019-04-05T23:45:22.652Z,59.73
2019-04-05T23:47:49.509Z,58.90
2019-04-05T23:50:16.509Z,59.43
2019-04-05T23:52:43.446Z,61.20
2019-04-05T23:55:10.445Z,59.57
2019-04-05T23:57:37.300Z,59.13
